Latest Coastal Weather Observations for Port Kembla Harbour

IDN60701

Issued at 2:15 pm EST Tuesday 23 September 2014 (issued every 10 minutes, with the page automatically refreshed every 10 minutes)

About coastal observations | Map of coastal stations | Coastal observations for NSW | Marine services | Other Formats
Station Details ID: 068253 Name: PORT KEMBLA NTC AWS Lat: -34.47 Lon: 150.91 Height: 0.0 m
Data from the previous 72 hours. | See also: Recent months for locations in New South Wales
Date/Time
EST
Temp

°C
Wind Pressure Rain
since 9am
mm
Weather Cloud Vis
km
Sea
Height
m
Swell
Dir
 
Speed
knots
Gust
knots
hPa Trend Height
m
Period
s
Dir
23/02:00pm 18.1 NE 13 17 1025.5 - - - - - - - - -
23/01:30pm 17.9 NE 12 17 1025.9 - - - - - - - - -
23/01:00pm 17.7 NE 12 16 1026.3 - - - - - - - - -
23/12:30pm 18.0 NE 11 14 1026.6 - - - - - - - - -
23/12:00pm 17.9 NE 12 16 1026.9 - - - - - - - - -
23/11:30am 17.9 NE 12 15 1027.3 - - - - - - - - -
23/11:00am 17.9 NE 9 13 1027.9 - - - - - - - - -
23/10:30am 17.8 NE 9 12 1028.1 - - - - - - - - -
23/10:00am 17.4 NE 7 10 1028.7 - - - - - - - - -
23/09:30am 17.4 NE 6 8 1029.0 - - - - - - - - -
23/09:00am 17.4 NNE 5 6 1029.2 - - - - - - - - -
23/08:30am 16.8 NNE 5 8 1029.2 - - - - - - - - -
23/08:00am 16.8 N 5 8 1029.2 - - - - - - - - -
23/07:30am 15.7 N 4 6 1029.2 - - - - - - - - -
23/07:00am 14.7 W 3 6 1029.3 - - - - - - - - -
23/06:30am 13.9 WNW 2 3 1029.0 - - - - - - - - -
23/06:00am 13.5 WSW 1 3 1028.8 - - - - - - - - -
23/05:30am 13.3 SW 2 3 1028.8 - - - - - - - - -
23/05:00am 13.4 WSW 2 3 1028.8 - - - - - - - - -
23/04:30am 13.0 SW 2 3 1028.7 - - - - - - - - -
23/04:00am 13.3 WSW 2 4 1028.5 - - - - - - - - -
23/03:30am 13.8 WSW 3 5 1028.3 - - - - - - - - -
23/03:00am 14.1 WSW 4 5 1028.3 - - - - - - - - -
23/02:30am 15.1 NNW 5 7 1028.4 - - - - - - - - -
23/02:00am 15.0 NW 5 6 1028.6 - - - - - - - - -
23/01:30am 15.2 N 3 5 1028.7 - - - - - - - - -
23/01:00am 14.1 SW 2 3 1029.0 - - - - - - - - -
23/12:30am 14.7 W 2 3 1029.2 - - - - - - - - -
23/12:00am 15.6 NNW 4 6 1029.4 - - - - - - - - -
 
Date/Time
EST
Temp

°C
Wind Pressure Rain
since 9am
mm
Weather Cloud Vis
km
Sea
Height
m
Swell
Dir
 
Speed
knots
Gust
knots
hPa Trend Height
m
Period
s
Dir
22/11:30pm 15.6 N 4 6 1029.5 - - - - - - - - -
22/11:00pm 15.8 NNW 5 6 1029.6 - - - - - - - - -
22/10:30pm 15.9 NNW 6 8 1029.7 - - - - - - - - -
22/10:00pm 16.0 NNW 5 7 1029.8 - - - - - - - - -
22/09:30pm 16.2 NNW 6 8 1029.9 - - - - - - - - -
22/09:00pm 16.3 NW 5 7 1029.9 - - - - - - - - -
22/08:30pm 16.4 NW 5 6 1029.8 - - - - - - - - -
22/08:00pm 16.6 NNW 5 6 1029.6 - - - - - - - - -
22/07:30pm 17.2 NNE 8 10 1029.3 - - - - - - - - -
22/07:00pm 17.1 NE 8 11 1029.1 - - - - - - - - -
22/06:30pm 17.3 NE 8 11 1028.8 - - - - - - - - -
22/06:00pm 17.3 NE 8 10 1028.5 - - - - - - - - -
22/05:30pm 17.3 NE 8 11 1028.4 - - - - - - - - -
22/05:00pm 17.4 NE 9 12 1028.2 - - - - - - - - -
22/04:30pm 17.4 NE 8 12 1028.1 - - - - - - - - -
22/04:00pm 17.4 NE 9 12 1028.1 - - - - - - - - -
22/03:30pm 17.5 NE 9 12 1028.2 - - - - - - - - -
22/03:00pm 17.4 NE 9 13 1028.2 - - - - - - - - -
22/02:30pm 17.4 NE 9 12 1028.3 - - - - - - - - -
22/02:00pm 17.2 NE 9 12 1028.5 - - - - - - - - -
22/01:30pm 17.0 NE 9 13 1028.7 - - - - - - - - -
22/01:00pm 16.8 ENE 8 11 1029.1 - - - - - - - - -
22/12:30pm 16.6 NE 8 11 1029.4 - - - - - - - - -
22/12:00pm 16.3 NE 8 11 1030.0 - - - - - - - - -
22/11:30am 16.5 NE 7 11 1030.4 - - - - - - - - -
22/11:00am 16.2 ENE 6 8 1031.0 - - - - - - - - -
22/10:30am 16.0 ENE 5 8 1031.4 - - - - - - - - -
22/10:00am 15.7 E 4 6 1031.5 - - - - - - - - -
22/09:30am 15.8 E 2 4 1031.8 - - - - - - - - -
22/09:00am 15.7 E 3 4 1031.8 - - - - - - - - -
22/08:30am 15.6 ESE 2 4 1031.7 - - - - - - - - -
22/08:00am 15.9 CALM 0 1 1031.7 - - - - - - - - -
22/07:30am 14.4 W 3 4 1031.5 - - - - - - - - -
22/07:00am 13.2 W 4 6 1031.1 - - - - - - - - -
22/06:30am 11.9 WSW 4 5 1030.7 - - - - - - - - -
22/06:00am 11.9 WSW 3 5 1030.4 - - - - - - - - -
22/05:30am 12.3 WSW 2 3 1030.0 - - - - - - - - -
22/05:00am 13.7 SW 3 5 1029.6 - - - - - - - - -
22/04:30am 13.2 W 2 4 1029.5 - - - - - - - - -
22/04:00am 12.8 W 4 5 1029.5 - - - - - - - - -
22/03:30am 12.9 WSW 5 6 1029.3 - - - - - - - - -
22/03:00am 12.5 SW 4 6 1029.4 - - - - - - - - -
22/02:30am 12.8 SW 4 5 1029.4 - - - - - - - - -
22/02:00am 13.0 SW 4 5 1029.5 - - - - - - - - -
22/01:30am 13.3 SW 3 4 1029.9 - - - - - - - - -
22/01:00am 13.4 WSW 3 4 1030.1 - - - - - - - - -
22/12:30am 13.8 SW 3 5 1030.4 - - - - - - - - -
22/12:00am 14.1 SW 5 7 1030.4 - - - - - - - - -
 
Date/Time
EST
Temp

°C
Wind Pressure Rain
since 9am
mm
Weather Cloud Vis
km
Sea
Height
m
Swell
Dir
 
Speed
knots
Gust
knots
hPa Trend Height
m
Period
s
Dir
21/11:30pm 14.3 SW 5 7 1030.6 - - - - - - - - -
21/11:00pm 14.3 WSW 3 5 1030.6 - - - - - - - - -
21/10:30pm 14.5 W 5 6 1030.8 - - - - - - - - -
21/10:00pm 14.7 W 3 5 1030.9 - - - - - - - - -
21/09:30pm 15.1 W 6 7 1030.7 - - - - - - - - -
21/09:00pm 15.5 SW 3 5 1030.6 - - - - - - - - -
21/08:30pm 15.9 S 3 5 1030.5 - - - - - - - - -
21/08:00pm 15.8 S 3 5 1030.2 - - - - - - - - -
21/07:30pm 15.7 SSE 4 7 1029.6 - - - - - - - - -
21/07:00pm 15.7 SE 4 7 1029.2 - - - - - - - - -
21/06:30pm 15.7 SSE 5 9 1028.7 - - - - - - - - -
21/06:00pm 15.7 SSE 4 8 1028.2 - - - - - - - - -
21/05:30pm 15.8 SE 6 9 1027.9 - - - - - - - - -
21/05:00pm 16.0 SE 6 9 1027.7 - - - - - - - - -
21/04:30pm 15.9 ESE 5 8 1027.6 - - - - - - - - -
21/04:00pm 16.2 ESE 6 9 1027.5 - - - - - - - - -
21/03:30pm 16.0 ESE 6 9 1027.4 - - - - - - - - -
21/03:00pm 15.9 SE 7 10 1027.4 - - - - - - - - -
21/02:30pm 15.8 ESE 7 10 1027.5 - - - - - - - - -
21/02:00pm 15.9 SE 8 11 1027.7 - - - - - - - - -
21/01:30pm 15.7 ESE 7 9 1027.9 - - - - - - - - -
21/01:00pm 15.8 SE 7 10 1028.3 - - - - - - - - -
21/12:30pm 15.9 SE 8 12 1028.6 - - - - - - - - -
21/12:00pm 16.0 SE 9 13 1029.1 - - - - - - - - -
21/11:30am 16.6 SE 8 12 1029.7 - - - - - - - - -
21/11:00am 16.0 SSE 7 13 1030.0 - - - - - - - - -
21/10:30am 16.4 SE 7 12 1030.2 - - - - - - - - -
21/10:00am 16.2 S 7 16 1030.3 - - - - - - - - -
21/09:30am 16.2 S 6 13 1030.3 - - - - - - - - -
21/09:00am 15.9 SSW 7 13 1030.3 - - - - - - - - -
21/08:30am 15.5 SSW 8 14 1030.1 - - - - - - - - -
21/08:00am 14.3 WSW 7 10 1029.7 - - - - - - - - -
21/07:30am 13.7 WSW 7 10 1029.1 - - - - - - - - -
21/07:00am 12.9 WSW 7 9 1028.8 - - - - - - - - -
21/06:30am 12.6 WSW 7 8 1028.3 - - - - - - - - -
21/06:00am 12.3 WSW 6 8 1027.9 - - - - - - - - -
21/05:30am 12.3 WSW 4 6 1027.7 - - - - - - - - -
21/05:00am 12.5 WSW 6 7 1027.2 - - - - - - - - -
21/04:30am 13.2 WSW 4 6 1027.0 - - - - - - - - -
21/04:00am 13.3 WSW 6 8 1026.8 - - - - - - - - -
21/03:30am 13.2 WSW 5 7 1026.9 - - - - - - - - -
21/03:00am 13.1 WSW 4 5 1026.8 - - - - - - - - -
21/02:30am 13.3 WSW 4 7 1027.0 - - - - - - - - -
21/02:00am 13.7 WSW 6 7 1027.2 - - - - - - - - -
21/01:30am 13.8 WSW 6 10 1027.4 - - - - - - - - -
21/01:00am 13.3 WSW 6 8 1027.7 - - - - - - - - -
21/12:30am 13.0 WSW 5 6 1027.8 - - - - - - - - -

Other Formats:

Comma delimited format used in spreadsheet applications
http://www.bom.gov.au/fwo/IDN60701/IDN60701.95745.axf

JavaScript Object Notation format (JSON) in row-major order
http://www.bom.gov.au/fwo/IDN60701/IDN60701.95745.json